Time;durP1;ratioP1;P1;durP2;ratioP2;P2;SDS_P1;SDS_P2;PMS_P1;PMS_P2;Temp;Humidity;BMP_temperature;BMP_pressure;BME280_temperature;BME280_humidity;BME280_pressure;Samples;Min_cycle;Max_cycle;Signal;HPM_P1;HPM_P2
2022/05/24 00:13:02;;;;;;;1.83;1.33;;;14.70;81.30;;;;;;4855883;29;20138;-84
2022/05/24 00:30:28;;;;;;;2.03;1.42;;;14.80;81.50;;;;;;4748784;30;20067;-83
2022/05/24 00:36:45;;;;;;;3.15;1.80;;;14.90;81.70;;;;;;4748307;30;20060;-84
2022/05/24 00:58:42;;;;;;;2.60;1.92;;;14.80;81.90;;;;;;4639975;30;20153;-83
2022/05/24 01:41:03;;;;;;;4.35;2.88;;;14.50;82.00;;;;;;4738599;30;20055;-80
2022/05/24 01:44:24;;;;;;;4.28;2.85;;;14.50;82.10;;;;;;4730526;30;20052;-83
2022/05/24 01:54:30;;;;;;;5.03;2.95;;;14.40;82.30;;;;;;4769844;29;20136;-80
2022/05/24 02:11:59;;;;;;;3.97;2.35;;;14.20;82.50;;;;;;4721633;30;20515;-81
2022/05/24 02:17:28;;;;;;;4.03;2.72;;;14.20;82.60;;;;;;4694180;30;20513;-82
2022/05/24 02:22:53;;;;;;;3.13;2.25;;;14.10;82.60;;;;;;4710436;30;20057;-83
2022/05/24 02:25:48;;;;;;;4.55;2.88;;;14.10;82.70;;;;;;4711856;30;20059;-81
2022/05/24 02:29:31;;;;;;;5.28;2.65;;;14.10;82.70;;;;;;4683863;30;20053;-82
2022/05/24 02:32:24;;;;;;;;;;;14.10;82.70;;;;;;4695917;30;20045;-81
2022/05/24 02:35:57;;;;;;;3.20;1.75;;;14.10;82.60;;;;;;4695530;30;20003;-79
2022/05/24 02:38:26;;;;;;;2.45;1.60;;;14.00;82.40;;;;;;4729977;30;20044;-79
2022/05/24 02:44:09;;;;;;;2.20;1.60;;;13.90;82.40;;;;;;4781903;30;20067;-79
2022/05/24 02:47:23;;;;;;;2.60;1.52;;;13.90;82.60;;;;;;4794551;29;20106;-81
2022/05/24 02:49:49;;;;;;;2.00;1.38;;;13.80;82.70;;;;;;4819796;29;20054;-79
2022/05/24 02:52:16;;;;;;;2.97;1.70;;;13.80;82.70;;;;;;4844023;29;20911;-82
2022/05/24 02:54:42;;;;;;;2.72;1.48;;;13.70;82.80;;;;;;4850470;29;20045;-82
2022/05/24 02:57:08;;;;;;;2.17;1.50;;;13.60;82.80;;;;;;4849034;29;20109;-83
2022/05/24 02:59:33;;;;;;;2.95;1.52;;;13.60;83.00;;;;;;4931082;28;20050;-81
2022/05/24 03:02:02;;;;;;;2.72;1.20;;;13.60;83.10;;;;;;4994753;28;20449;-80
2022/05/24 03:04:28;;;;;;;2.17;1.02;;;13.50;83.10;;;;;;4956830;28;20037;-81
2022/05/24 03:09:35;;;;;;;1.67;0.95;;;13.50;83.20;;;;;;4959423;28;20053;-80
2022/05/24 03:14:47;;;;;;;1.55;1.00;;;13.40;83.20;;;;;;4959388;28;20449;-81
2022/05/24 03:17:12;;;;;;;1.92;1.02;;;13.40;83.20;;;;;;4957361;28;20157;-81
2022/05/24 03:19:38;;;;;;;1.13;0.90;;;13.30;83.20;;;;;;4956995;28;20170;-81
2022/05/24 03:22:05;;;;;;;1.05;0.80;;;13.40;83.20;;;;;;4957028;28;20047;-81
2022/05/24 04:20:36;;;;;;;0.88;0.88;;;13.20;81.70;;;;;;4679731;30;20054;-82
2022/05/24 04:59:13;;;;;;;0.98;0.80;;;13.20;81.30;;;;;;4970984;28;20507;-81
2022/05/24 05:12:52;;;;;;;1.67;1.10;;;13.20;81.20;;;;;;4662168;30;20057;-80
2022/05/24 05:15:18;;;;;;;1.65;1.10;;;13.20;81.20;;;;;;4662491;30;20578;-78
2022/05/24 05:17:43;;;;;;;1.42;1.10;;;13.20;81.10;;;;;;4663178;30;20100;-78
2022/05/24 05:20:09;;;;;;;1.70;1.10;;;13.20;81.20;;;;;;4663187;30;20042;-80
2022/05/24 05:22:37;;;;;;;2.22;1.55;;;13.20;81.30;;;;;;4662348;30;20630;-79
2022/05/24 05:25:03;;;;;;;2.20;1.20;;;13.20;81.30;;;;;;4648847;30;20034;-78
2022/05/24 05:27:29;;;;;;;2.22;1.20;;;13.10;81.40;;;;;;4663030;30;20053;-78
2022/05/24 05:32:37;;;;;;;1.67;1.40;;;13.10;81.60;;;;;;4686670;30;20045;-79
2022/05/24 05:35:03;;;;;;;2.40;1.35;;;13.20;81.70;;;;;;4714576;30;20045;-78
2022/05/24 05:37:31;;;;;;;1.88;1.45;;;13.20;81.70;;;;;;4714421;30;20107;-77
2022/05/24 05:39:57;;;;;;;2.33;1.30;;;13.20;81.70;;;;;;4713665;30;20120;-77
2022/05/24 05:42:24;;;;;;;1.65;1.30;;;13.20;81.60;;;;;;4746288;30;20534;-80
2022/05/24 05:44:50;;;;;;;2.97;1.33;;;13.20;81.60;;;;;;4778793;29;20423;-79
2022/05/24 05:47:19;;;;;;;3.42;1.40;;;13.20;81.60;;;;;;4839634;29;20103;-79
2022/05/24 05:49:46;;;;;;;3.33;1.50;;;13.20;81.60;;;;;;4943244;28;20742;-79
2022/05/24 05:52:12;;;;;;;1.10;1.00;;;13.20;81.60;;;;;;4955960;28;20087;-78
2022/05/24 05:54:38;;;;;;;1.83;1.50;;;13.30;81.60;;;;;;4955547;28;20038;-80
2022/05/24 05:57:06;;;;;;;2.63;1.70;;;13.30;81.60;;;;;;4955485;28;20039;-79
2022/05/24 05:59:32;;;;;;;3.00;1.80;;;13.30;81.60;;;;;;4973308;28;20053;-79
2022/05/24 06:01:58;;;;;;;2.53;1.77;;;13.30;81.50;;;;;;4972823;28;20043;-79
2022/05/24 06:04:26;;;;;;;2.33;1.60;;;13.30;81.40;;;;;;4972929;28;20478;-79
2022/05/24 06:06:53;;;;;;;1.73;1.50;;;13.30;81.40;;;;;;4955414;28;20049;-79
2022/05/24 06:09:20;;;;;;;2.83;1.85;;;13.30;82.00;;;;;;4972873;28;20078;-79
2022/05/24 06:11:45;;;;;;;2.88;1.88;;;13.30;81.40;;;;;;4956119;28;20128;-79
2022/05/24 06:14:11;;;;;;;2.58;1.70;;;13.30;81.40;;;;;;4955442;28;20078;-79
2022/05/24 06:16:38;;;;;;;2.47;1.60;;;13.30;81.40;;;;;;4939654;28;20119;-79
2022/05/24 06:19:05;;;;;;;2.00;1.60;;;13.30;81.70;;;;;;4955351;28;20073;-80
2022/05/24 06:21:33;;;;;;;2.85;1.60;;;13.40;81.40;;;;;;4973270;28;20035;-79
2022/05/24 06:24:02;;;;;;;3.85;1.90;;;13.40;81.90;;;;;;4973464;28;20504;-81
2022/05/24 06:26:29;;;;;;;2.40;1.90;;;13.40;81.30;;;;;;4937518;28;20050;-80
2022/05/24 06:28:57;;;;;;;2.42;1.85;;;13.40;81.30;;;;;;4955667;28;20500;-79
2022/05/24 06:31:24;;;;;;;3.30;2.00;;;13.40;81.20;;;;;;4972329;28;20069;-80
2022/05/24 06:33:49;;;;;;;2.03;1.60;;;13.50;81.30;;;;;;4939238;28;20965;-79
2022/05/24 06:36:15;;;;;;;1.77;1.52;;;13.40;81.20;;;;;;4955788;28;20038;-79
2022/05/24 06:38:41;;;;;;;3.85;1.80;;;13.50;81.30;;;;;;4955195;28;20113;-79
2022/05/24 06:41:07;;;;;;;2.45;1.70;;;13.40;81.20;;;;;;4953272;28;20037;-80
2022/05/24 06:43:34;;;;;;;2.65;1.80;;;13.50;81.20;;;;;;4972407;28;20038;-79
2022/05/24 06:46:07;;;;;;;1.73;1.50;;;13.40;81.10;;;;;;4922050;28;20040;-79
2022/05/24 06:48:35;;;;;;;2.17;1.80;;;13.50;81.20;;;;;;4938563;28;20137;-79
2022/05/24 06:51:02;;;;;;;2.58;1.60;;;13.50;81.00;;;;;;4954949;28;20455;-78
2022/05/24 06:53:29;;;;;;;3.60;2.05;;;13.50;81.00;;;;;;4954884;28;20374;-79
2022/05/24 06:55:57;;;;;;;2.60;1.90;;;13.50;81.00;;;;;;4955235;28;20097;-78
2022/05/24 06:58:23;;;;;;;2.15;1.60;;;13.40;81.00;;;;;;4972272;28;20039;-79
2022/05/24 07:03:33;;;;;;;2.10;1.42;;;13.50;81.20;;;;;;4968183;28;20042;-79
2022/05/24 07:05:58;;;;;;;2.08;1.67;;;13.60;81.10;;;;;;4939050;28;20035;-79
2022/05/24 07:08:24;;;;;;;1.90;1.70;;;13.60;80.80;;;;;;4954649;28;20593;-78
2022/05/24 07:10:50;;;;;;;2.63;1.63;;;13.70;80.70;;;;;;4938756;28;20101;-79
2022/05/24 07:13:18;;;;;;;2.35;1.80;;;13.70;80.60;;;;;;4971911;28;20134;-78
2022/05/24 07:15:43;;;;;;;3.08;2.10;;;13.80;80.60;;;;;;4939166;28;20058;-80
2022/05/24 07:18:09;;;;;;;3.05;2.35;;;13.90;80.40;;;;;;4972261;28;20042;-78
2022/05/24 07:20:38;;;;;;;2.40;2.10;;;13.90;80.50;;;;;;4972173;28;20385;-78
2022/05/24 07:23:20;;;;;;;4.22;2.22;;;14.20;80.10;;;;;;4972160;28;20050;-79
2022/05/24 07:25:47;;;;;;;2.67;2.08;;;14.30;80.00;;;;;;4954942;28;20039;-80
2022/05/24 07:28:16;;;;;;;3.42;1.83;;;14.40;79.20;;;;;;4971912;28;20154;-80
2022/05/24 07:30:42;;;;;;;2.97;2.08;;;14.60;79.20;;;;;;4972064;28;20039;-79
2022/05/24 07:33:09;;;;;;;2.92;2.20;;;14.70;78.70;;;;;;4971831;28;20508;-79
2022/05/24 07:35:35;;;;;;;2.20;1.80;;;14.80;78.50;;;;;;4955271;28;20070;-81
2022/05/24 07:38:01;;;;;;;2.72;1.98;;;14.90;78.30;;;;;;4955915;28;20158;-79
2022/05/24 07:45:54;;;;;;;2.97;2.15;;;15.10;78.10;;;;;;4915602;29;20047;-79
2022/05/24 07:48:20;;;;;;;2.22;2.03;;;15.10;77.90;;;;;;4915701;29;20570;-78
2022/05/24 07:50:46;;;;;;;2.67;2.03;;;15.00;78.00;;;;;;4915668;29;20044;-79
2022/05/24 07:53:13;;;;;;;2.60;2.10;;;14.90;78.10;;;;;;4899688;29;20081;-79
2022/05/24 07:55:40;;;;;;;2.70;2.00;;;15.00;78.30;;;;;;4915319;29;20063;-79
2022/05/24 07:58:05;;;;;;;3.10;1.70;;;15.10;78.40;;;;;;4915442;29;20032;-79
2022/05/24 08:00:31;;;;;;;2.25;1.67;;;15.40;78.00;;;;;;4899559;29;20105;-80
2022/05/24 08:02:57;;;;;;;1.50;1.38;;;15.40;77.20;;;;;;4915433;29;20443;-79
2022/05/24 08:05:23;;;;;;;1.90;1.80;;;15.60;77.00;;;;;;4915299;29;20051;-78
2022/05/24 08:07:49;;;;;;;1.80;1.70;;;15.60;76.70;;;;;;4899555;29;20052;-78
2022/05/24 08:10:16;;;;;;;1.90;1.60;;;15.60;76.90;;;;;;4915547;28;20056;-78
2022/05/24 08:12:42;;;;;;;1.60;1.50;;;15.70;76.70;;;;;;4958090;28;20051;-79
2022/05/24 08:15:09;;;;;;;2.28;1.50;;;15.70;76.50;;;;;;4957059;28;20437;-80
2022/05/24 08:17:34;;;;;;;2.10;1.60;;;15.80;76.80;;;;;;4974849;28;20058;-79
2022/05/24 08:20:00;;;;;;;2.42;1.98;;;16.00;76.60;;;;;;4974375;28;20042;-78
2022/05/24 08:22:26;;;;;;;2.42;2.10;;;16.00;75.90;;;;;;4974585;28;20385;-78
2022/05/24 08:24:52;;;;;;;2.95;2.00;;;16.00;75.90;;;;;;4957642;28;20081;-78
2022/05/24 08:27:18;;;;;;;2.22;1.80;;;16.10;76.00;;;;;;4957081;28;20030;-78
2022/05/24 08:29:44;;;;;;;1.70;1.60;;;16.10;76.20;;;;;;4941026;28;20038;-78
2022/05/24 08:32:11;;;;;;;1.73;1.50;;;15.90;76.20;;;;;;4956910;28;20034;-77
2022/05/24 08:34:38;;;;;;;3.03;1.60;;;15.90;75.80;;;;;;4974251;28;20031;-77
2022/05/24 08:37:06;;;;;;;1.58;1.48;;;15.80;75.90;;;;;;4974494;28;20039;-78
2022/05/24 08:39:32;;;;;;;1.75;1.40;;;16.00;76.00;;;;;;4957059;28;20393;-79
2022/05/24 08:42:37;;;;;;;1.33;1.20;;;16.20;75.60;;;;;;4974308;28;20055;-78
2022/05/24 08:50:45;;;;;;;2.05;1.00;;;16.50;74.60;;;;;;4973096;28;20118;-78
2022/05/24 08:53:16;;;;;;;2.22;0.98;;;16.50;74.80;;;;;;4957267;28;20031;-78
2022/05/24 08:55:43;;;;;;;1.13;0.90;;;16.50;74.70;;;;;;4956797;28;20398;-77
2022/05/24 08:58:19;;;;;;;1.60;1.10;;;16.40;74.70;;;;;;4974048;28;20090;-78
2022/05/24 09:00:45;;;;;;;1.83;1.23;;;16.30;74.90;;;;;;4956690;28;20478;-78
2022/05/24 09:03:11;;;;;;;1.05;0.93;;;16.10;75.40;;;;;;4973912;28;20094;-78
2022/05/24 09:05:47;;;;;;;1.25;1.00;;;15.70;76.10;;;;;;4973975;28;20098;-78
2022/05/24 09:08:39;;;;;;;1.80;1.05;;;15.50;77.10;;;;;;4974140;28;20399;-78
2022/05/24 09:11:18;;;;;;;;;;;15.40;77.60;;;;;;4974254;28;20043;-77
2022/05/24 09:14:09;;;;;;;1.52;0.80;;;15.40;77.70;;;;;;4972592;28;19906;-79
2022/05/24 09:16:43;;;;;;;;;;;15.40;77.60;;;;;;4974317;28;20047;-79
2022/05/24 09:19:23;;;;;;;1.45;0.80;;;15.40;77.60;;;;;;4973777;28;19910;-79
2022/05/24 09:21:53;;;;;;;0.98;0.77;;;15.30;77.50;;;;;;4956374;28;20409;-79
2022/05/24 09:24:48;;;;;;;0.70;0.70;;;15.40;77.60;;;;;;4973695;28;20405;-78
2022/05/24 09:27:19;;;;;;;1.20;1.10;;;15.60;77.10;;;;;;4956076;28;20097;-79
2022/05/24 09:30:03;;;;;;;1.20;1.05;;;15.70;76.60;;;;;;4956209;28;20031;-78
2022/05/24 09:32:34;;;;;;;1.40;1.15;;;15.70;76.40;;;;;;4973557;28;20503;-77
2022/05/24 09:35:07;;;;;;;1.15;0.80;;;15.80;76.60;;;;;;4956402;28;20045;-78
2022/05/24 09:37:33;;;;;;;1.10;1.00;;;16.00;76.20;;;;;;4955964;28;20066;-79
2022/05/24 09:40:06;;;;;;;1.95;1.25;;;16.30;75.50;;;;;;4956137;28;20035;-78
2022/05/24 09:42:36;;;;;;;1.52;1.08;;;16.30;75.10;;;;;;4956675;28;20065;-78
2022/05/24 09:45:09;;;;;;;1.25;1.08;;;16.20;75.00;;;;;;4956213;28;20034;-78
2022/05/24 09:47:54;;;;;;;1.00;0.90;;;16.10;75.90;;;;;;4973083;28;20039;-81
2022/05/24 09:50:32;;;;;;;1.33;1.10;;;16.00;75.70;;;;;;4955954;28;20035;-79
2022/05/24 09:53:16;;;;;;;1.00;0.90;;;15.90;76.00;;;;;;4955793;28;20122;-78
2022/05/24 09:55:52;;;;;;;0.80;0.80;;;15.90;76.00;;;;;;4973614;28;20121;-78
2022/05/24 09:58:34;;;;;;;1.23;0.70;;;16.10;76.10;;;;;;4972168;28;20042;-78
2022/05/24 10:01:37;;;;;;;1.92;0.95;;;16.40;75.50;;;;;;4972933;28;20027;-79
2022/05/24 10:04:34;;;;;;;1.35;0.90;;;16.80;74.50;;;;;;4972828;28;20027;-79
2022/05/24 10:07:03;;;;;;;1.58;0.93;;;16.80;73.90;;;;;;4972661;28;20170;-80
2022/05/24 10:09:56;;;;;;;1.02;0.80;;;16.70;73.90;;;;;;4973135;28;20107;-78
2022/05/24 10:12:54;;;;;;;0.70;0.70;;;16.90;74.00;;;;;;4958372;28;20038;-78
2022/05/24 10:15:44;;;;;;;0.63;0.60;;;17.00;73.70;;;;;;4972815;28;20221;-79
2022/05/24 10:18:45;;;;;;;0.40;0.40;;;17.10;73.40;;;;;;4958853;28;20102;-78
2022/05/24 10:21:24;;;;;;;1.00;0.57;;;17.10;73.30;;;;;;4971884;28;20038;-77
2022/05/24 10:24:03;;;;;;;0.82;0.70;;;17.20;73.10;;;;;;4973336;28;20046;-78
2022/05/24 10:26:48;;;;;;;0.60;0.60;;;17.20;72.70;;;;;;4973155;28;20093;-78
2022/05/24 10:29:36;;;;;;;0.70;0.70;;;16.90;73.00;;;;;;4972528;28;20106;-77
2022/05/24 10:38:17;;;;;;;0.50;0.50;;;16.70;73.90;;;;;;4972657;28;20039;-79
2022/05/24 10:38:17;;;;;;;0.52;0.52;;;16.70;74.70;;;;;;4972648;28;21209;-79
2022/05/24 10:41:04;;;;;;;1.05;0.40;;;16.90;74.00;;;;;;4972815;28;20034;-78
2022/05/24 10:43:59;;;;;;;0.65;0.50;;;16.90;73.80;;;;;;4939169;28;20043;-79
2022/05/24 10:46:46;;;;;;;0.52;0.47;;;17.00;74.00;;;;;;4972399;28;20378;-78
2022/05/24 10:49:26;;;;;;;0.52;0.40;;;16.90;74.00;;;;;;4972217;28;20552;-79
2022/05/24 10:52:00;;;;;;;0.28;0.28;;;17.00;74.10;;;;;;4972340;28;20141;-78
2022/05/24 10:55:00;;;;;;;0.38;0.38;;;17.20;73.40;;;;;;4940009;28;20548;-77
2022/05/24 10:57:34;;;;;;;0.60;0.30;;;17.20;73.30;;;;;;4972647;28;20051;-77
2022/05/24 11:00:12;;;;;;;0.30;0.30;;;17.10;73.10;;;;;;4954382;28;20035;-79
2022/05/24 11:03:05;;;;;;;0.40;0.40;;;17.20;73.30;;;;;;4955678;28;20034;-78
2022/05/24 11:05:38;;;;;;;0.20;0.20;;;17.10;72.70;;;;;;4956446;28;20039;-78
2022/05/24 11:08:40;;;;;;;0.35;0.35;;;17.00;72.90;;;;;;4939464;28;20047;-79
2022/05/24 11:11:25;;;;;;;0.30;0.30;;;16.90;73.10;;;;;;4972148;28;20152;-78
2022/05/24 11:14:03;;;;;;;0.60;0.50;;;16.90;73.40;;;;;;4974806;28;20094;-79
2022/05/24 11:16:39;;;;;;;0.50;0.30;;;17.00;73.20;;;;;;4975565;28;20069;-79
2022/05/24 11:19:14;;;;;;;0.82;0.50;;;17.20;72.80;;;;;;4975477;28;20105;-79
2022/05/24 11:21:50;;;;;;;0.30;0.30;;;17.50;72.60;;;;;;4940913;28;20042;-78
2022/05/24 11:24:24;;;;;;;0.45;0.45;;;17.60;72.20;;;;;;4975584;28;20027;-80
2022/05/24 11:26:54;;;;;;;1.33;0.47;;;17.80;71.40;;;;;;4957924;28;20508;-79
2022/05/24 11:29:33;;;;;;;0.38;0.38;;;17.70;71.30;;;;;;4934975;29;20039;-81
2022/05/24 11:32:04;;;;;;;0.45;0.40;;;17.90;71.30;;;;;;4919184;29;20111;-79
2022/05/24 11:34:35;;;;;;;1.45;0.57;;;18.00;70.80;;;;;;4935164;29;20107;-79
2022/05/24 11:37:20;;;;;;;0.73;0.57;;;18.10;70.80;;;;;;4918734;29;20067;-79
2022/05/24 11:39:47;;;;;;;0.43;0.32;;;18.10;70.60;;;;;;4934457;29;20086;-81
2022/05/24 11:42:33;;;;;;;0.40;0.40;;;17.90;70.90;;;;;;4918862;29;20079;-80
2022/05/24 11:45:34;;;;;;;0.47;0.40;;;17.70;71.10;;;;;;4934289;29;20636;-79
2022/05/24 11:48:16;;;;;;;0.47;0.40;;;17.60;71.70;;;;;;4934325;29;20099;-81
2022/05/24 11:50:48;;;;;;;0.45;0.30;;;17.30;72.20;;;;;;4918626;29;20611;-82
2022/05/24 11:53:43;;;;;;;0.82;0.40;;;16.90;72.80;;;;;;4918195;29;20040;-82
2022/05/24 12:14:06;;;;;;;0.22;0.20;;;16.30;74.60;;;;;;4843075;29;20137;-79
2022/05/24 12:17:25;;;;;;;0.40;0.22;;;16.30;74.50;;;;;;4806893;29;20062;-79
2022/05/24 12:23:44;;;;;;;0.15;0.15;;;16.60;73.80;;;;;;4806612;29;20070;-80
2022/05/24 12:27:18;;;;;;;0.20;0.20;;;16.80;73.60;;;;;;4804027;29;20047;-83
2022/05/24 12:40:39;;;;;;;0.85;0.25;;;17.50;71.90;;;;;;4909665;29;20115;-81
2022/05/24 12:43:15;;;;;;;0.20;0.20;;;17.50;71.50;;;;;;4914221;29;20455;-81
2022/05/24 12:46:37;;;;;;;0.20;0.20;;;17.40;71.40;;;;;;4900106;29;20052;-79
2022/05/24 12:49:25;;;;;;;0.20;0.20;;;17.40;71.40;;;;;;4918263;29;20070;-80
2022/05/24 12:52:00;;;;;;;0.47;0.30;;;17.40;71.30;;;;;;4916091;29;20107;-79
2022/05/24 12:54:35;;;;;;;0.20;0.20;;;17.30;71.00;;;;;;4931546;29;20028;-79
2022/05/24 12:57:12;;;;;;;0.30;0.30;;;17.30;71.00;;;;;;4919048;29;20044;-77
2022/05/24 12:59:57;;;;;;;0.57;0.38;;;17.40;71.00;;;;;;4930636;29;20048;-77
2022/05/24 13:02:43;;;;;;;0.20;0.20;;;17.50;70.60;;;;;;4937632;28;20074;-78
2022/05/24 13:05:16;;;;;;;0.30;0.30;;;17.60;70.10;;;;;;4973930;28;20041;-78
2022/05/24 13:08:05;;;;;;;0.50;0.30;;;17.60;69.90;;;;;;4972695;29;20043;-81
2022/05/24 13:10:36;;;;;;;0.28;0.28;;;17.60;69.90;;;;;;4957020;29;20138;-78
2022/05/24 13:13:19;;;;;;;0.30;0.30;;;17.70;69.90;;;;;;4952950;29;20070;-79
2022/05/24 13:15:51;;;;;;;0.22;0.22;;;17.80;69.60;;;;;;4944089;29;20050;-78
2022/05/24 13:18:22;;;;;;;0.52;0.30;;;18.00;69.30;;;;;;4951569;29;20075;-80
2022/05/24 13:20:51;;;;;;;0.50;0.35;;;17.90;69.20;;;;;;4964183;29;20044;-79
2022/05/24 13:23:22;;;;;;;0.30;0.30;;;17.90;69.30;;;;;;4969077;29;20043;-78
2022/05/24 13:25:53;;;;;;;1.15;0.32;;;17.90;69.30;;;;;;4968976;29;20146;-77
2022/05/24 13:28:41;;;;;;;0.20;0.20;;;17.80;69.30;;;;;;4970303;29;20063;-77
2022/05/24 13:34:19;;;;;;;0.20;0.20;;;17.60;69.60;;;;;;4971440;29;20054;-78
2022/05/24 13:36:57;;;;;;;0.50;0.40;;;17.50;69.90;;;;;;4970779;28;20058;-77
2022/05/24 13:39:29;;;;;;;0.40;0.30;;;17.40;69.90;;;;;;4985879;28;20030;-79
2022/05/24 13:42:01;;;;;;;0.30;0.30;;;17.30;70.10;;;;;;4946238;28;20042;-81
2022/05/24 13:44:33;;;;;;;0.40;0.40;;;17.20;70.30;;;;;;4987119;28;20512;-81
2022/05/24 13:47:23;;;;;;;0.30;0.30;;;16.80;71.20;;;;;;4959546;28;20086;-82
2022/05/24 13:50:00;;;;;;;0.20;0.20;;;16.50;72.00;;;;;;4981874;28;20141;-80
2022/05/24 13:52:49;;;;;;;0.25;0.20;;;16.20;72.80;;;;;;4950993;29;20054;-80
2022/05/24 13:55:22;;;;;;;0.20;0.20;;;16.20;73.40;;;;;;4952904;29;20083;-80
2022/05/24 13:57:58;;;;;;;0.63;0.30;;;16.10;73.50;;;;;;4954437;29;20129;-81
2022/05/24 14:00:34;;;;;;;0.20;0.20;;;16.30;73.60;;;;;;4928986;29;20076;-81
2022/05/24 14:06:08;;;;;;;0.22;0.20;;;16.60;72.90;;;;;;5037167;23;20051;-81
2022/05/24 14:08:44;;;;;;;0.68;0.25;;;16.80;72.60;;;;;;4961024;28;20038;-82
2022/05/24 14:11:13;;;;;;;0.32;0.30;;;16.90;72.20;;;;;;5003957;28;20058;-82
2022/05/24 14:13:41;;;;;;;0.30;0.30;;;16.90;71.90;;;;;;4977519;28;20097;-77
2022/05/24 14:16:07;;;;;;;1.00;0.30;;;16.90;71.60;;;;;;4943322;28;20046;-81
2022/05/24 14:18:33;;;;;;;0.20;0.20;;;17.10;71.70;;;;;;4958902;28;20134;-80
2022/05/24 14:20:59;;;;;;;0.30;0.30;;;17.10;71.70;;;;;;4992707;28;20038;-82
2022/05/24 14:23:25;;;;;;;0.30;0.30;;;17.20;71.50;;;;;;4992619;28;20054;-83
2022/05/24 14:25:51;;;;;;;0.77;0.38;;;17.30;71.30;;;;;;4974921;28;20087;-81
2022/05/24 14:28:19;;;;;;;0.50;0.40;;;17.30;71.20;;;;;;4958722;28;20038;-82
2022/05/24 14:30:46;;;;;;;0.50;0.30;;;17.40;71.00;;;;;;4974896;28;20039;-82
2022/05/24 14:33:17;;;;;;;0.17;0.17;;;17.40;70.80;;;;;;4975282;28;20038;-82
2022/05/24 14:35:44;;;;;;;0.30;0.30;;;17.30;71.00;;;;;;4983135;28;20047;-81
2022/05/24 14:38:10;;;;;;;0.35;0.35;;;17.30;71.00;;;;;;4974431;28;20027;-83
2022/05/24 14:40:38;;;;;;;0.30;0.30;;;17.50;70.80;;;;;;4957872;28;20038;-81
2022/05/24 14:43:07;;;;;;;0.63;0.30;;;17.50;70.30;;;;;;4990660;28;20049;-80
2022/05/24 14:45:34;;;;;;;0.47;0.40;;;17.50;70.30;;;;;;4992434;28;20064;-81
2022/05/24 14:47:59;;;;;;;0.40;0.40;;;17.60;70.10;;;;;;4954003;28;20060;-81
2022/05/24 14:50:25;;;;;;;0.55;0.40;;;17.30;70.00;;;;;;4974535;28;20109;-81
2022/05/24 14:52:51;;;;;;;0.45;0.43;;;17.20;70.10;;;;;;4973885;28;20070;-82
2022/05/24 14:55:22;;;;;;;0.52;0.47;;;17.10;70.30;;;;;;4974245;28;20090;-81
2022/05/24 14:57:48;;;;;;;0.25;0.25;;;17.10;70.40;;;;;;4957711;28;20069;-81
2022/05/24 15:00:14;;;;;;;0.43;0.40;;;17.10;70.50;;;;;;4941805;28;20481;-80
2022/05/24 15:02:40;;;;;;;0.85;0.50;;;17.10;70.60;;;;;;4973955;28;20031;-80
2022/05/24 15:05:08;;;;;;;1.05;0.45;;;17.00;71.10;;;;;;4974103;28;20067;-82
2022/05/24 15:15:40;;;;;;;0.20;0.20;;;16.60;71.90;;;;;;4973086;28;20182;-81
2022/05/24 15:18:08;;;;;;;0.30;0.30;;;16.60;71.90;;;;;;4961094;28;20114;-82
2022/05/24 15:20:36;;;;;;;0.10;0.10;;;16.80;71.80;;;;;;4977809;28;20034;-81
2022/05/24 15:23:07;;;;;;;0.20;0.20;;;16.80;71.70;;;;;;4960358;28;20406;-81
2022/05/24 15:25:39;;;;;;;0.20;0.20;;;16.90;71.70;;;;;;4949849;28;20138;-82
2022/05/24 15:28:08;;;;;;;0.20;0.20;;;17.00;71.50;;;;;;4932345;29;20039;-81
2022/05/24 15:30:36;;;;;;;0.28;0.28;;;17.00;71.30;;;;;;4919074;29;20445;-82
2022/05/24 15:33:02;;;;;;;0.20;0.20;;;17.00;71.00;;;;;;4919227;29;20035;-82
2022/05/24 15:35:28;;;;;;;0.25;0.25;;;16.90;71.20;;;;;;4934848;29;20102;-83
2022/05/24 15:37:54;;;;;;;0.10;0.10;;;16.80;71.50;;;;;;4934625;29;20159;-81
2022/05/24 15:40:19;;;;;;;0.20;0.20;;;16.70;71.70;;;;;;4918864;29;20039;-81
2022/05/24 15:42:46;;;;;;;0.20;0.20;;;16.70;71.90;;;;;;4934804;29;20032;-82
2022/05/24 15:45:14;;;;;;;0.20;0.20;;;16.80;71.90;;;;;;4934574;29;20076;-82
2022/05/24 15:47:41;;;;;;;0.22;0.22;;;17.00;71.40;;;;;;4935019;29;20036;-82
2022/05/24 15:50:07;;;;;;;0.55;0.20;;;17.10;71.00;;;;;;4917901;29;20482;-81
2022/05/24 15:52:33;;;;;;;0.20;0.20;;;17.20;70.60;;;;;;4934694;29;20394;-81
2022/05/24 15:54:59;;;;;;;0.32;0.32;;;17.20;70.30;;;;;;4918804;29;20044;-80
2022/05/24 15:57:26;;;;;;;0.63;0.40;;;17.00;70.30;;;;;;4918648;29;20052;-83
2022/05/24 15:59:52;;;;;;;0.20;0.20;;;17.00;70.60;;;;;;4984155;28;20041;-80
2022/05/24 16:02:17;;;;;;;0.80;0.43;;;16.70;70.80;;;;;;4976002;28;20109;-81
2022/05/24 16:10:06;;;;;;;0.22;0.20;;;16.40;71.30;;;;;;4994397;28;20097;-79
2022/05/24 16:12:36;;;;;;;1.20;0.30;;;16.40;71.30;;;;;;4977333;28;20100;-81
2022/05/24 16:15:05;;;;;;;0.20;0.20;;;16.30;71.20;;;;;;4994084;28;20076;-79
2022/05/24 16:17:32;;;;;;;0.32;0.25;;;16.30;71.20;;;;;;4976474;28;20069;-80
2022/05/24 16:19:58;;;;;;;0.25;0.25;;;16.30;71.10;;;;;;4975987;28;20062;-79
2022/05/24 16:22:25;;;;;;;0.20;0.20;;;16.30;70.90;;;;;;4976327;28;20062;-81
2022/05/24 16:24:50;;;;;;;0.20;0.20;;;16.30;70.90;;;;;;4994048;28;20039;-80
2022/05/24 16:27:16;;;;;;;0.28;0.20;;;16.30;70.70;;;;;;4994072;28;20397;-81
2022/05/24 16:29:42;;;;;;;0.20;0.20;;;16.50;70.50;;;;;;4976630;28;20070;-81
2022/05/24 16:32:08;;;;;;;0.75;0.20;;;16.40;70.20;;;;;;4993795;28;20137;-79
2022/05/24 16:34:34;;;;;;;0.38;0.35;;;16.40;70.00;;;;;;4994105;28;20070;-82
2022/05/24 16:37:02;;;;;;;0.30;0.30;;;16.40;70.00;;;;;;4976998;28;20518;-83
2022/05/24 16:39:28;;;;;;;0.25;0.22;;;16.30;70.00;;;;;;4972497;28;20038;-83
2022/05/24 16:41:54;;;;;;;0.82;0.40;;;16.30;70.00;;;;;;4956003;28;20039;-82
2022/05/24 16:44:19;;;;;;;0.30;0.20;;;16.30;70.00;;;;;;4939107;28;20043;-82
2022/05/24 16:46:45;;;;;;;0.30;0.30;;;16.20;70.10;;;;;;4939914;28;20075;-83
2022/05/24 16:49:11;;;;;;;0.20;0.20;;;16.10;70.10;;;;;;4922653;28;20178;-82
2022/05/24 16:51:40;;;;;;;0.32;0.32;;;16.10;70.10;;;;;;4923917;28;20039;-85
2022/05/24 16:59:30;;;;;;;0.50;0.40;;;16.00;70.00;;;;;;4942567;28;20536;-83
2022/05/24 17:01:55;;;;;;;0.30;0.30;;;16.00;70.00;;;;;;4940493;28;20039;-83
2022/05/24 17:04:21;;;;;;;0.80;0.40;;;16.00;70.00;;;;;;4939105;28;20027;-83
2022/05/24 17:06:47;;;;;;;0.65;0.30;;;15.90;70.00;;;;;;4955727;28;20393;-81
2022/05/24 17:09:13;;;;;;;0.40;0.40;;;16.00;70.10;;;;;;4955812;28;20047;-83
2022/05/24 17:11:39;;;;;;;0.63;0.45;;;16.10;70.00;;;;;;4956890;28;20038;-83
2022/05/24 17:14:05;;;;;;;0.73;0.50;;;16.20;69.90;;;;;;4976679;28;20449;-84
2022/05/24 17:16:30;;;;;;;0.30;0.30;;;16.00;69.70;;;;;;4993738;28;20054;-84
2022/05/24 17:18:56;;;;;;;1.15;0.57;;;16.10;69.80;;;;;;4976939;28;20042;-83
2022/05/24 17:21:22;;;;;;;1.05;0.50;;;16.10;69.80;;;;;;4993719;28;20034;-87
2022/05/24 17:23:48;;;;;;;0.47;0.45;;;16.20;69.90;;;;;;4976044;28;20038;-83
2022/05/24 17:26:14;;;;;;;0.38;0.38;;;16.30;69.70;;;;;;4974843;28;20065;-80
2022/05/24 17:28:40;;;;;;;0.40;0.40;;;16.40;69.60;;;;;;4959534;28;20388;-77
2022/05/24 17:31:06;;;;;;;1.38;0.60;;;16.60;69.40;;;;;;4994000;28;20054;-79
2022/05/24 17:33:34;;;;;;;0.47;0.45;;;16.60;69.20;;;;;;4943909;28;20066;-79
2022/05/24 17:36:00;;;;;;;0.70;0.47;;;16.60;69.00;;;;;;4992919;28;20042;-79
2022/05/24 17:38:26;;;;;;;0.40;0.40;;;16.70;69.10;;;;;;4993470;28;20053;-78
2022/05/24 17:40:58;;;;;;;0.55;0.47;;;16.60;69.20;;;;;;4975919;28;20042;-77
2022/05/24 17:43:27;;;;;;;0.70;0.50;;;16.50;69.40;;;;;;4992984;28;20081;-80
2022/05/24 17:45:54;;;;;;;0.30;0.30;;;16.40;69.60;;;;;;4959562;28;20057;-80
2022/05/24 17:48:21;;;;;;;0.30;0.30;;;16.30;69.80;;;;;;4943503;28;20030;-79
2022/05/24 17:50:48;;;;;;;0.30;0.30;;;16.30;70.20;;;;;;4975830;28;20026;-80
2022/05/24 17:53:18;;;;;;;0.40;0.40;;;16.10;70.30;;;;;;4959473;28;20091;-79
2022/05/24 17:55:45;;;;;;;0.30;0.30;;;16.10;70.50;;;;;;4993659;28;20057;-80
2022/05/24 17:58:12;;;;;;;0.30;0.30;;;16.00;70.60;;;;;;4977239;28;20168;-80
2022/05/24 18:00:38;;;;;;;0.73;0.40;;;15.90;70.80;;;;;;4977377;28;20058;-80
2022/05/24 18:03:05;;;;;;;0.40;0.40;;;15.80;71.00;;;;;;4977342;28;20100;-78
2022/05/24 18:05:31;;;;;;;0.40;0.40;;;15.70;71.20;;;;;;4979232;28;20485;-79
2022/05/24 18:07:56;;;;;;;0.30;0.30;;;15.70;71.30;;;;;;4996396;28;20053;-79
2022/05/24 18:10:22;;;;;;;0.40;0.40;;;15.70;71.40;;;;;;4977341;28;20653;-79
2022/05/24 18:12:49;;;;;;;0.40;0.40;;;15.70;71.50;;;;;;4960772;28;20061;-80
2022/05/24 18:15:16;;;;;;;0.45;0.40;;;15.60;71.60;;;;;;4976253;28;20133;-79
2022/05/24 18:17:42;;;;;;;0.30;0.30;;;15.60;71.70;;;;;;4994295;28;20489;-79
2022/05/24 18:20:10;;;;;;;0.47;0.32;;;15.60;71.70;;;;;;4993573;28;20041;-80
2022/05/24 18:22:40;;;;;;;0.28;0.28;;;15.50;71.70;;;;;;4944126;28;20074;-80